Time;durP1;ratioP1;P1;durP2;ratioP2;P2;SDS_P1;SDS_P2;PMS_P1;PMS_P2;Temp;Humidity;BMP_temperature;BMP_pressure;BME280_temperature;BME280_humidity;BME280_pressure;Samples;Min_cycle;Max_cycle;Signal;HPM_P1;HPM_P2
2022/02/13 00:01:37;;;;;;;17.75;8.73;;;;;;;11.14;53.48;99469.28;5094256;28;20421;-49
2022/02/13 00:04:04;;;;;;;24.73;8.88;;;;;;;11.23;53.51;99466.53;5094141;28;20052;-49
2022/02/13 00:06:30;;;;;;;14.88;7.88;;;;;;;11.37;52.89;99468.34;5092765;28;20024;-49
2022/02/13 00:08:56;;;;;;;16.73;9.45;;;;;;;11.43;53.52;99470.22;5094104;28;20032;-49
2022/02/13 00:11:22;;;;;;;18.85;8.60;;;;;;;11.55;52.89;99454.75;5093981;28;20074;-49
2022/02/13 00:13:48;;;;;;;17.63;8.32;;;;;;;11.65;52.33;99460.53;5093914;28;20032;-49
2022/02/13 00:16:15;;;;;;;21.63;9.07;;;;;;;11.71;52.47;99454.53;5093908;28;20016;-48
2022/02/13 00:18:40;;;;;;;22.02;9.73;;;;;;;11.68;51.74;99447.00;5093910;28;20024;-49
2022/02/13 00:21:06;;;;;;;21.77;8.32;;;;;;;11.60;52.38;99447.13;5093842;28;20016;-49
2022/02/13 00:23:32;;;;;;;22.20;9.88;;;;;;;11.61;52.45;99448.78;5093856;28;20020;-48
2022/02/13 00:25:57;;;;;;;40.95;17.95;;;;;;;11.50;52.67;99444.81;5092453;28;20020;-50
2022/02/13 00:28:23;;;;;;;34.75;24.33;;;;;;;11.49;52.93;99427.44;5093739;28;20031;-48
2022/02/13 00:30:49;;;;;;;34.63;21.75;;;;;;;11.52;52.87;99437.53;5093665;28;20023;-50
2022/02/13 00:33:16;;;;;;;25.27;11.00;;;;;;;11.46;52.50;99430.41;5093582;28;20052;-49
2022/02/13 00:35:42;;;;;;;25.63;10.02;;;;;;;11.44;52.62;99427.16;5091965;28;20433;-48
2022/02/13 00:38:09;;;;;;;30.70;10.23;;;;;;;11.33;52.72;99420.59;5093498;28;20044;-50
2022/02/13 00:40:35;;;;;;;29.40;14.52;;;;;;;11.13;53.00;99435.34;5093452;28;20073;-49
2022/02/13 00:43:01;;;;;;;21.45;10.00;;;;;;;11.00;53.43;99430.72;5093427;28;20417;-48
2022/02/13 00:45:27;;;;;;;20.10;9.35;;;;;;;10.87;53.68;99434.03;5093317;28;20076;-49
2022/02/13 00:47:53;;;;;;;21.35;9.95;;;;;;;10.83;53.58;99432.78;5093323;28;20020;-50
2022/02/13 00:50:19;;;;;;;22.05;10.55;;;;;;;10.88;53.74;99432.22;5093259;28;20402;-50
2022/02/13 00:52:44;;;;;;;30.90;11.32;;;;;;;10.92;52.88;99428.22;5093209;28;20027;-49
2022/02/13 00:55:10;;;;;;;20.88;10.70;;;;;;;10.73;53.69;99422.53;5092257;28;20077;-49
2022/02/13 00:57:36;;;;;;;22.20;11.93;;;;;;;10.74;54.18;99429.41;5093481;28;20036;-49
2022/02/13 01:00:04;;;;;;;19.52;9.70;;;;;;;10.81;53.61;99429.50;5093016;28;20024;-50
2022/02/13 01:02:30;;;;;;;16.55;8.57;;;;;;;10.71;54.11;99436.88;5091723;28;20024;-50
2022/02/13 01:04:55;;;;;;;21.60;8.77;;;;;;;10.68;54.05;99416.22;5093004;28;20035;-48
2022/02/13 01:07:21;;;;;;;19.15;9.93;;;;;;;10.72;53.94;99420.09;5091570;28;20055;-50
2022/02/13 01:09:47;;;;;;;24.15;11.07;;;;;;;10.85;53.77;99424.72;5092914;28;20020;-50
2022/02/13 01:12:13;;;;;;;25.65;12.52;;;;;;;10.93;53.19;99422.78;5091550;28;20144;-49
2022/02/13 01:14:39;;;;;;;23.27;10.20;;;;;;;10.97;53.30;99418.78;5092756;28;20021;-49
2022/02/13 01:17:04;;;;;;;17.20;8.90;;;;;;;11.03;53.14;99424.28;5092674;28;20102;-49
2022/02/13 01:19:30;;;;;;;31.65;23.15;;;;;;;11.14;52.54;99426.44;5092749;28;20059;-49
2022/02/13 01:21:58;;;;;;;39.47;17.63;;;;;;;11.08;52.30;99421.94;5092677;28;20028;-49
2022/02/13 01:24:24;;;;;;;25.88;9.55;;;;;;;10.99;52.69;99424.69;5091357;28;20375;-50
2022/02/13 01:26:50;;;;;;;21.20;9.70;;;;;;;11.09;52.42;99416.50;5091600;28;20058;-49
2022/02/13 01:29:15;;;;;;;18.63;8.57;;;;;;;10.98;52.23;99409.09;5091208;28;20619;-49
2022/02/13 01:31:41;;;;;;;20.30;9.05;;;;;;;10.95;52.55;99414.72;5092571;28;20024;-48
2022/02/13 01:34:07;;;;;;;16.90;8.48;;;;;;;10.92;53.15;99404.59;5092133;28;20386;-48
2022/02/13 01:36:33;;;;;;;17.95;9.45;;;;;;;11.03;52.55;99408.53;5092438;28;20036;-49
2022/02/13 01:38:59;;;;;;;24.45;10.30;;;;;;;10.95;52.47;99401.59;5092430;28;20093;-48
2022/02/13 01:41:24;;;;;;;18.27;9.32;;;;;;;10.86;52.24;99406.13;5091000;28;20424;-48
2022/02/13 01:43:50;;;;;;;21.58;11.05;;;;;;;10.71;52.70;99406.16;5092309;28;20107;-49
2022/02/13 01:46:16;;;;;;;20.95;10.73;;;;;;;10.66;53.03;99402.44;5092259;28;20027;-50
2022/02/13 01:48:42;;;;;;;26.33;10.82;;;;;;;10.77;52.85;99392.31;5092209;28;20406;-50
2022/02/13 01:51:07;;;;;;;22.83;9.60;;;;;;;10.82;52.26;99399.63;5092158;28;20474;-49
2022/02/13 01:53:34;;;;;;;19.65;10.02;;;;;;;10.68;52.63;99380.25;5092194;28;20028;-49
2022/02/13 01:56:02;;;;;;;21.40;10.75;;;;;;;10.67;52.60;99402.28;5092072;28;20389;-48
2022/02/13 01:58:28;;;;;;;24.77;9.98;;;;;;;10.70;52.64;99387.97;5092170;28;20444;-50
2022/02/13 02:00:54;;;;;;;24.55;10.40;;;;;;;10.68;52.19;99396.00;5090690;28;20020;-48
2022/02/13 02:03:20;;;;;;;36.20;24.33;;;;;;;10.51;52.46;99391.97;5091958;28;20016;-48
2022/02/13 02:05:46;;;;;;;23.98;12.43;;;;;;;10.30;52.92;99393.53;5092108;28;20070;-49
2022/02/13 02:08:12;;;;;;;25.77;10.70;;;;;;;10.29;52.84;99385.81;5092020;28;20028;-49
2022/02/13 02:10:38;;;;;;;21.30;10.90;;;;;;;10.12;53.57;99385.16;5091959;28;20508;-48
2022/02/13 02:13:04;;;;;;;23.05;10.60;;;;;;;9.90;54.12;99394.69;5091946;28;20056;-48
2022/02/13 02:15:30;;;;;;;26.10;12.13;;;;;;;9.87;53.92;99395.88;5091859;28;20052;-48
2022/02/13 02:17:55;;;;;;;22.92;11.40;;;;;;;9.74;54.41;99385.22;5091897;28;20027;-49
2022/02/13 02:20:21;;;;;;;22.98;12.38;;;;;;;9.60;54.23;99381.56;5091791;28;20024;-48
2022/02/13 02:22:49;;;;;;;20.83;10.65;;;;;;;9.43;54.95;99374.81;5091852;28;20028;-49
2022/02/13 02:25:16;;;;;;;25.58;10.65;;;;;;;9.64;54.80;99377.59;5091835;28;20061;-49
2022/02/13 02:27:41;;;;;;;20.98;10.90;;;;;;;9.79;54.73;99381.03;5091803;28;20486;-48
2022/02/13 02:30:08;;;;;;;16.08;8.93;;;;;;;9.96;54.05;99359.91;5091767;28;20023;-48
2022/02/13 02:32:33;;;;;;;18.70;8.77;;;;;;;9.97;53.65;99362.34;5091809;28;20077;-49
2022/02/13 02:35:03;;;;;;;21.15;9.50;;;;;;;10.16;53.14;99350.53;5091454;28;20044;-49
2022/02/13 02:37:29;;;;;;;18.27;8.70;;;;;;;10.22;52.25;99346.34;5091738;28;20024;-50
2022/02/13 02:39:54;;;;;;;18.63;11.48;;;;;;;10.20;52.09;99341.31;5090323;28;20018;-48
2022/02/13 02:42:20;;;;;;;18.92;9.73;;;;;;;10.07;52.44;99340.31;5091610;28;20024;-50
2022/02/13 02:44:46;;;;;;;18.33;7.68;;;;;;;10.08;51.81;99324.41;5091663;28;20024;-48
2022/02/13 02:47:11;;;;;;;14.05;8.25;;;;;;;10.05;51.63;99331.81;5091555;28;20020;-49
2022/02/13 02:49:37;;;;;;;16.80;9.38;;;;;;;9.97;51.72;99330.06;5091586;28;20047;-50
2022/02/13 02:52:03;;;;;;;19.02;7.78;;;;;;;9.89;51.80;99330.16;5091522;28;20401;-48
2022/02/13 02:54:29;;;;;;;24.30;8.40;;;;;;;9.81;51.57;99312.72;5091480;28;20034;-47
2022/02/13 02:56:54;;;;;;;17.80;9.07;;;;;;;9.78;51.94;99315.72;5091543;28;20125;-50
2022/02/13 02:59:20;;;;;;;20.25;8.60;;;;;;;9.78;51.07;99316.50;5091515;28;20397;-49
2022/02/13 03:01:46;;;;;;;16.00;7.63;;;;;;;9.82;51.38;99313.50;5091449;28;20482;-49
2022/02/13 03:04:11;;;;;;;18.05;8.27;;;;;;;9.96;50.73;99323.19;5091501;28;20020;-50
2022/02/13 03:06:38;;;;;;;20.75;8.02;;;;;;;9.91;50.56;99322.94;5091404;28;20028;-49
2022/02/13 03:09:04;;;;;;;13.20;7.35;;;;;;;9.88;50.92;99316.25;5091434;28;20021;-49
2022/02/13 03:11:30;;;;;;;18.90;7.68;;;;;;;9.82;50.15;99316.13;5091393;28;20033;-49
2022/02/13 03:13:56;;;;;;;23.55;8.13;;;;;;;9.58;50.92;99321.44;5091272;28;20020;-49
2022/02/13 03:16:22;;;;;;;19.02;7.97;;;;;;;9.44;50.77;99313.53;5091348;28;20028;-50
2022/02/13 03:18:47;;;;;;;14.73;7.57;;;;;;;9.52;51.13;99313.50;5094112;28;20018;-49
2022/02/13 03:21:13;;;;;;;17.15;9.20;;;;;;;9.66;51.45;99291.75;5095037;28;20031;-48
2022/02/13 03:23:39;;;;;;;17.38;7.90;;;;;;;9.78;51.65;99289.50;5094957;28;20067;-49
2022/02/13 03:26:05;;;;;;;21.80;10.20;;;;;;;9.88;51.53;99287.41;5094979;28;20085;-50
2022/02/13 03:28:30;;;;;;;24.20;8.95;;;;;;;9.98;50.50;99292.38;5094934;28;20475;-50
2022/02/13 03:30:56;;;;;;;14.02;8.05;;;;;;;10.09;50.51;99289.28;5094860;28;20020;-48
2022/02/13 03:33:21;;;;;;;13.00;7.97;;;;;;;10.13;50.38;99287.13;5094900;28;20100;-48
2022/02/13 03:35:47;;;;;;;19.42;9.05;;;;;;;10.15;49.87;99282.50;5094502;28;20126;-49
2022/02/13 03:38:14;;;;;;;15.38;7.55;;;;;;;10.08;49.76;99282.44;5094717;28;20044;-49
2022/02/13 03:40:40;;;;;;;14.10;7.93;;;;;;;9.94;49.48;99275.38;5093375;28;20119;-50
2022/02/13 03:43:06;;;;;;;24.05;9.80;;;;;;;9.91;50.15;99276.53;5094660;28;20024;-49
2022/02/13 03:45:33;;;;;;;14.77;8.32;;;;;;;9.92;50.08;99261.63;5093267;28;20024;-49
2022/02/13 03:47:59;;;;;;;15.43;7.47;;;;;;;10.10;49.60;99266.50;5093224;28;20103;-48
2022/02/13 03:50:26;;;;;;;18.63;8.98;;;;;;;10.23;49.95;99260.63;5094482;28;20016;-50
2022/02/13 03:52:52;;;;;;;17.13;7.22;;;;;;;10.33;48.45;99261.97;5093080;28;20536;-49
2022/02/13 03:55:18;;;;;;;18.70;8.18;;;;;;;10.23;48.74;99258.81;5094404;28;20111;-48
2022/02/13 03:57:43;;;;;;;17.05;8.75;;;;;;;10.21;49.05;99258.16;5094298;28;20012;-48
2022/02/13 04:00:12;;;;;;;19.70;7.97;;;;;;;10.25;49.15;99262.06;5094312;28;20032;-48
2022/02/13 04:02:38;;;;;;;14.48;8.45;;;;;;;10.20;48.66;99262.59;5094243;28;20032;-48
2022/02/13 04:05:05;;;;;;;16.63;7.47;;;;;;;10.18;47.92;99261.97;5094208;28;20558;-49
2022/02/13 04:07:31;;;;;;;14.35;7.70;;;;;;;10.17;48.29;99265.59;5094176;28;20028;-48
2022/02/13 04:09:57;;;;;;;15.60;7.68;;;;;;;10.18;48.04;99264.59;5094145;28;20468;-49
2022/02/13 04:12:26;;;;;;;16.45;7.75;;;;;;;10.18;47.71;99261.97;5094097;28;20020;-50
2022/02/13 04:14:52;;;;;;;19.10;7.65;;;;;;;10.07;47.67;99262.44;5092655;28;20055;-48
2022/02/13 04:17:19;;;;;;;17.98;8.65;;;;;;;10.15;48.32;99254.47;5093996;28;20048;-48
2022/02/13 04:19:45;;;;;;;14.93;7.60;;;;;;;10.20;47.30;99248.66;5093917;28;20528;-48
2022/02/13 04:22:11;;;;;;;16.83;6.75;;;;;;;10.16;46.70;99256.09;5093877;28;20044;-48
2022/02/13 04:24:36;;;;;;;11.75;7.07;;;;;;;10.06;47.31;99242.47;5093806;28;20059;-49
2022/02/13 04:27:02;;;;;;;13.52;6.80;;;;;;;10.14;47.78;99246.78;5092692;28;20074;-49
2022/02/13 04:29:28;;;;;;;15.25;8.15;;;;;;;10.27;47.30;99239.06;5092537;28;20028;-48
2022/02/13 04:31:54;;;;;;;13.60;7.28;;;;;;;10.35;47.21;99240.81;5092368;28;20024;-49
2022/02/13 04:34:19;;;;;;;18.73;7.57;;;;;;;10.35;46.00;99243.44;5093315;28;20055;-48
2022/02/13 04:36:45;;;;;;;10.85;6.32;;;;;;;10.16;46.07;99253.47;5093659;28;20032;-49
2022/02/13 04:39:11;;;;;;;16.45;8.55;;;;;;;10.05;46.48;99242.66;5093528;28;20024;-49
2022/02/13 04:41:36;;;;;;;14.25;7.15;;;;;;;10.09;46.01;99247.34;5093446;28;20016;-48
2022/02/13 04:44:02;;;;;;;16.00;7.15;;;;;;;10.08;45.96;99231.78;5093464;28;20020;-49
2022/02/13 04:46:28;;;;;;;20.52;7.70;;;;;;;10.13;45.79;99245.16;5093369;28;20390;-49
2022/02/13 04:48:54;;;;;;;11.77;6.82;;;;;;;10.09;45.60;99238.66;5092035;28;20508;-49
2022/02/13 04:51:19;;;;;;;12.80;6.88;;;;;;;10.04;45.64;99239.22;5091957;28;20120;-48
2022/02/13 04:53:45;;;;;;;14.73;7.53;;;;;;;9.79;45.60;99226.38;5093169;28;20050;-49
2022/02/13 04:56:11;;;;;;;17.08;6.22;;;;;;;9.69;45.67;99228.47;5091907;28;20024;-50
2022/02/13 04:58:36;;;;;;;12.60;6.90;;;;;;;9.72;45.62;99219.44;5091841;28;20024;-49
2022/02/13 05:01:03;;;;;;;12.57;6.50;;;;;;;9.72;45.23;99216.81;5093089;28;20020;-49
2022/02/13 05:03:28;;;;;;;17.27;7.38;;;;;;;9.76;44.99;99218.09;5091748;28;20115;-48
2022/02/13 05:05:55;;;;;;;13.88;6.85;;;;;;;9.69;45.43;99217.97;5093349;28;20024;-49
2022/02/13 05:08:21;;;;;;;14.63;6.78;;;;;;;9.71;45.18;99210.75;5092973;28;20024;-49
2022/02/13 05:10:47;;;;;;;11.13;6.00;;;;;;;9.74;45.15;99210.41;5092983;28;20443;-49
2022/02/13 05:13:13;;;;;;;12.55;6.45;;;;;;;9.73;45.12;99211.38;5091592;28;20032;-49
2022/02/13 05:15:39;;;;;;;13.82;7.60;;;;;;;9.74;45.01;99206.97;5092689;28;20020;-49
2022/02/13 05:18:05;;;;;;;12.80;6.32;;;;;;;9.79;44.63;99205.41;5092807;28;20327;-48
2022/02/13 05:20:31;;;;;;;14.57;7.05;;;;;;;9.75;44.48;99198.91;5092723;28;20490;-49
2022/02/13 05:22:57;;;;;;;16.70;6.82;;;;;;;9.68;44.74;99198.03;5092725;28;20028;-50
2022/02/13 05:25:24;;;;;;;14.95;7.05;;;;;;;9.69;44.73;99199.63;5092647;28;20429;-50
2022/02/13 05:27:50;;;;;;;14.75;6.50;;;;;;;9.69;44.58;99199.63;5092914;28;20043;-49
2022/02/13 05:30:16;;;;;;;14.38;7.07;;;;;;;9.55;44.53;99192.59;5092571;28;20016;-48
2022/02/13 05:32:42;;;;;;;15.63;7.50;;;;;;;9.55;45.10;99200.47;5092503;28;20020;-49
2022/02/13 05:35:09;;;;;;;11.73;5.90;;;;;;;9.58;44.61;99198.28;5092217;28;20044;-48
2022/02/13 05:37:36;;;;;;;12.52;6.85;;;;;;;9.54;44.69;99190.97;5092459;28;20020;-49
2022/02/13 05:40:03;;;;;;;9.98;6.63;;;;;;;9.48;44.49;99194.31;5092045;28;20059;-49
2022/02/13 05:42:28;;;;;;;11.07;6.65;;;;;;;9.38;44.59;99184.91;5092348;28;20013;-48
2022/02/13 05:44:55;;;;;;;11.63;6.65;;;;;;;9.31;44.51;99204.94;5092398;28;20157;-50
2022/02/13 05:47:21;;;;;;;17.83;7.65;;;;;;;9.28;45.08;99197.47;5092279;28;20023;-49
2022/02/13 05:49:46;;;;;;;11.45;6.68;;;;;;;9.38;44.90;99190.16;5092255;28;20028;-49
2022/02/13 05:52:12;;;;;;;13.45;6.50;;;;;;;9.47;44.44;99193.50;5092251;28;20397;-50
2022/02/13 05:54:38;;;;;;;13.45;7.28;;;;;;;9.43;44.67;99188.81;5092138;28;20027;-47
2022/02/13 05:57:05;;;;;;;18.42;7.50;;;;;;;9.39;45.82;99194.38;5092153;28;20068;-50
2022/02/13 05:59:31;;;;;;;9.82;6.40;;;;;;;9.63;44.78;99191.69;5092109;28;20552;-49
2022/02/13 06:01:56;;;;;;;14.00;8.35;;;;;;;9.57;45.21;99195.84;5092078;28;20108;-48
2022/02/13 06:04:23;;;;;;;11.70;7.13;;;;;;;9.35;46.13;99200.97;5092047;28;20111;-47
2022/02/13 06:06:50;;;;;;;15.23;7.82;;;;;;;9.40;45.56;99192.59;5092051;28;20501;-48
2022/02/13 06:09:17;;;;;;;13.88;8.35;;;;;;;9.21;46.09;99204.41;5090728;28;20028;-49
2022/02/13 06:11:43;;;;;;;27.95;14.80;;;;;;;8.85;46.87;99189.34;5091962;28;20401;-48
2022/02/13 06:14:09;;;;;;;13.38;8.93;;;;;;;8.73;47.84;99196.81;5091879;28;20112;-50
2022/02/13 06:16:35;;;;;;;14.40;8.00;;;;;;;8.85;47.34;99205.03;5091918;28;20021;-49
2022/02/13 06:19:01;;;;;;;16.40;8.13;;;;;;;8.86;47.67;99204.06;5091933;28;20050;-49
2022/02/13 06:21:26;;;;;;;15.48;8.35;;;;;;;8.97;47.64;99201.03;5091853;28;20016;-49
2022/02/13 06:23:52;;;;;;;11.77;7.32;;;;;;;8.92;47.13;99208.59;5091886;28;20051;-49
2022/02/13 06:26:18;;;;;;;13.40;6.85;;;;;;;8.83;47.12;99208.81;5090433;28;20038;-48
2022/02/13 06:28:44;;;;;;;17.50;8.20;;;;;;;8.77;47.25;99203.31;5091818;28;20401;-49
2022/02/13 06:31:11;;;;;;;17.23;7.50;;;;;;;8.96;47.47;99203.81;5091793;28;20082;-48
2022/02/13 06:33:37;;;;;;;15.75;8.10;;;;;;;9.05;46.97;99194.88;5091693;28;20398;-48
2022/02/13 06:36:03;;;;;;;13.57;7.82;;;;;;;9.12;47.28;99195.81;5091484;28;20052;-49
2022/02/13 06:38:28;;;;;;;17.52;7.05;;;;;;;9.41;46.12;99188.97;5091676;28;20016;-47
2022/02/13 06:40:54;;;;;;;15.25;7.90;;;;;;;9.62;45.72;99183.03;5091933;28;20031;-49
2022/02/13 06:43:19;;;;;;;17.75;7.75;;;;;;;9.87;44.59;99177.47;5091683;28;20024;-48
2022/02/13 06:45:45;;;;;;;14.05;8.70;;;;;;;9.89;44.43;99181.53;5091702;28;20057;-48
2022/02/13 06:48:11;;;;;;;17.65;7.15;;;;;;;9.88;45.05;99177.31;5091641;28;20055;-49
2022/02/13 06:50:37;;;;;;;17.85;9.02;;;;;;;9.99;44.81;99179.44;5090272;28;20119;-48
2022/02/13 06:53:04;;;;;;;14.85;7.32;;;;;;;10.15;43.26;99181.03;5093317;28;20016;-48
2022/02/13 06:55:30;;;;;;;20.10;7.60;;;;;;;10.06;43.54;99182.16;5095396;28;20036;-49
2022/02/13 06:57:55;;;;;;;14.82;7.35;;;;;;;10.18;43.56;99170.19;5094352;28;20061;-49
2022/02/13 07:00:22;;;;;;;37.72;9.63;;;;;;;10.44;43.63;99168.03;5095443;28;20023;-49
2022/02/13 07:02:48;;;;;;;14.27;7.45;;;;;;;10.77;42.04;99166.50;5094099;28;20024;-49
2022/02/13 07:05:14;;;;;;;104.30;92.00;;;;;;;10.94;41.46;99163.59;5095498;28;20028;-49
2022/02/13 07:07:40;;;;;;;29.48;20.05;;;;;;;11.06;40.73;99169.16;5095271;28;20023;-49
2022/02/13 07:10:08;;;;;;;12.93;9.20;;;;;;;11.28;40.37;99168.09;5094068;28;20035;-48
2022/02/13 07:12:34;;;;;;;14.82;9.05;;;;;;;11.62;39.70;99160.38;5095277;28;20065;-48
2022/02/13 07:15:00;;;;;;;12.82;6.55;;;;;;;11.88;38.91;99159.69;5095191;28;20248;-48
2022/02/13 07:17:26;;;;;;;12.10;6.45;;;;;;;12.09;37.81;99146.44;5093851;28;20021;-48
2022/02/13 07:19:52;;;;;;;14.43;7.05;;;;;;;12.30;37.62;99148.09;5095129;28;20024;-48
2022/02/13 07:22:18;;;;;;;10.88;6.55;;;;;;;12.50;36.93;99140.22;5095021;28;20059;-49
2022/02/13 07:24:44;;;;;;;12.73;6.03;;;;;;;12.73;36.72;99146.91;5095259;28;20450;-49
2022/02/13 07:27:09;;;;;;;16.95;6.85;;;;;;;12.98;36.40;99147.91;5094872;28;20035;-49
2022/02/13 07:29:36;;;;;;;11.18;5.72;;;;;;;13.19;35.49;99153.97;5094904;28;20020;-49
2022/02/13 07:32:03;;;;;;;13.13;5.97;;;;;;;13.33;35.05;99154.78;5094898;28;20073;-50
2022/02/13 07:34:30;;;;;;;11.30;6.13;;;;;;;13.52;34.49;99153.09;5094436;28;20144;-48
2022/02/13 07:37:01;;;;;;;19.10;6.57;;;;;;;13.75;34.10;99140.22;5094744;28;20490;-50
2022/02/13 07:39:31;;;;;;;11.13;5.55;;;;;;;14.05;33.52;99149.44;5094772;28;20073;-49
2022/02/13 07:41:58;;;;;;;8.68;5.80;;;;;;;14.21;32.73;99141.03;5093319;28;20036;-49
2022/02/13 07:44:25;;;;;;;12.15;5.47;;;;;;;14.39;32.09;99142.94;5094628;28;20028;-50
2022/02/13 07:46:50;;;;;;;10.90;6.22;;;;;;;14.18;32.89;99139.63;5094576;28;20073;-49
2022/02/13 07:49:17;;;;;;;11.23;5.95;;;;;;;13.54;33.43;99138.72;5094541;28;20020;-50
2022/02/13 07:51:43;;;;;;;9.43;5.63;;;;;;;13.06;34.66;99144.25;5094511;28;20027;-48
2022/02/13 07:54:09;;;;;;;15.93;8.00;;;;;;;12.77;36.97;99137.59;5093054;28;20024;-48
2022/02/13 07:56:35;;;;;;;14.95;7.20;;;;;;;12.65;36.07;99142.66;5094451;28;20016;-49
2022/02/13 07:59:01;;;;;;;25.83;15.93;;;;;;;12.74;36.37;99135.38;5094384;28;20389;-49
2022/02/13 08:01:26;;;;;;;13.88;8.95;;;;;;;13.12;35.76;99129.44;5092943;28;20024;-49
2022/02/13 08:03:53;;;;;;;18.13;9.13;;;;;;;13.59;35.08;99130.97;5094021;28;20024;-49
2022/02/13 08:06:19;;;;;;;13.80;6.28;;;;;;;14.05;33.56;99126.50;5092944;28;20020;-49
2022/02/13 08:08:52;;;;;;;9.60;5.80;;;;;;;14.50;32.68;99117.66;5092871;28;20119;-49
2022/02/13 08:11:18;;;;;;;10.95;6.50;;;;;;;14.79;32.31;99113.59;5094122;28;20065;-49
2022/02/13 08:13:45;;;;;;;11.30;5.63;;;;;;;15.22;31.33;99117.25;5092714;28;20110;-50
2022/02/13 08:16:11;;;;;;;14.18;5.40;;;;;;;15.47;30.47;99122.47;5094027;28;20489;-50
2022/02/13 08:18:39;;;;;;;18.10;6.65;;;;;;;15.64;30.24;99128.78;5093972;28;20107;-50
2022/02/13 08:21:08;;;;;;;8.60;4.65;;;;;;;16.15;29.93;99135.44;5093911;28;20052;-49
2022/02/13 08:23:35;;;;;;;7.88;4.55;;;;;;;16.67;29.29;99131.44;5093990;28;20020;-50
2022/02/13 08:26:01;;;;;;;16.75;6.50;;;;;;;17.18;29.33;99129.94;5093920;28;20028;-50
2022/02/13 08:28:29;;;;;;;8.88;4.50;;;;;;;17.44;28.01;99123.34;5093868;28;20367;-50
2022/02/13 08:30:55;;;;;;;10.10;5.53;;;;;;;17.36;27.67;99124.53;5093833;28;20490;-50
2022/02/13 08:33:21;;;;;;;12.43;6.47;;;;;;;17.57;28.28;99130.25;5093717;28;20024;-50
2022/02/13 08:35:47;;;;;;;15.90;6.90;;;;;;;18.12;27.90;99127.06;5092060;28;20066;-50
2022/02/13 08:38:12;;;;;;;9.07;5.38;;;;;;;18.74;26.42;99128.06;5092281;28;20063;-50
2022/02/13 08:40:38;;;;;;;8.32;4.57;;;;;;;18.58;26.14;99120.91;5093500;28;20069;-51
2022/02/13 08:43:04;;;;;;;11.30;6.05;;;;;;;18.19;25.63;99124.28;5093479;28;20035;-50
2022/02/13 08:45:32;;;;;;;15.68;5.50;;;;;;;17.99;26.71;99130.03;5092111;28;20031;-49
2022/02/13 08:47:58;;;;;;;12.20;4.72;;;;;;;17.70;26.45;99123.84;5093364;28;20027;-50
2022/02/13 08:50:24;;;;;;;11.43;4.00;;;;;;;17.78;26.02;99107.53;5092029;28;20020;-51
2022/02/13 08:52:51;;;;;;;9.00;5.22;;;;;;;17.77;26.64;99116.56;5093333;28;20024;-49
2022/02/13 08:55:18;;;;;;;13.98;5.97;;;;;;;18.03;26.61;99096.63;5091859;28;20020;-50
2022/02/13 08:57:45;;;;;;;7.85;4.75;;;;;;;18.01;25.71;99106.69;5093224;28;20402;-51
2022/02/13 09:00:12;;;;;;;7.65;4.50;;;;;;;18.28;25.40;99111.38;5093172;28;20068;-51
2022/02/13 09:02:39;;;;;;;8.25;5.03;;;;;;;18.43;25.06;99102.84;5091801;28;20033;-50
2022/02/13 09:05:07;;;;;;;7.45;4.43;;;;;;;18.33;25.14;99093.69;5091757;28;20025;-50
2022/02/13 09:07:41;;;;;;;10.18;5.30;;;;;;;18.22;25.12;99093.75;5093103;28;20431;-49
2022/02/13 09:10:14;;;;;;;12.63;5.70;;;;;;;18.00;25.26;99077.72;5091680;28;20056;-49
2022/02/13 09:12:40;;;;;;;8.93;4.60;;;;;;;17.76;25.54;99089.19;5092983;28;20032;-50
2022/02/13 09:15:07;;;;;;;10.68;4.43;;;;;;;17.65;25.34;99086.63;5092119;28;20363;-50
2022/02/13 09:17:33;;;;;;;7.72;4.45;;;;;;;17.64;25.68;99085.78;5091572;28;20028;-51
2022/02/13 09:19:59;;;;;;;8.38;4.60;;;;;;;17.54;26.04;99075.78;5093116;28;20035;-49
2022/02/13 09:22:25;;;;;;;5.90;4.00;;;;;;;17.54;25.76;99065.16;5091371;28;20024;-49
2022/02/13 09:24:51;;;;;;;12.43;5.20;;;;;;;17.76;25.50;99064.50;5092801;28;20031;-50
2022/02/13 09:27:16;;;;;;;12.65;4.60;;;;;;;17.87;25.44;99070.84;5092592;28;20032;-51
2022/02/13 09:29:42;;;;;;;13.40;4.40;;;;;;;17.95;25.22;99073.13;5092666;28;20016;-50
2022/02/13 09:32:09;;;;;;;9.75;4.93;;;;;;;17.66;25.98;99057.16;5092576;28;20046;-48
2022/02/13 09:34:35;;;;;;;13.60;4.60;;;;;;;17.72;26.16;99108.50;5092425;28;20055;-49
2022/02/13 09:37:01;;;;;;;7.53;3.90;;;;;;;17.64;26.19;99064.53;5092510;28;20024;-51
2022/02/13 09:39:28;;;;;;;30.17;6.05;;;;;;;17.53;26.43;99068.06;5092407;28;20020;-49
2022/02/13 09:41:54;;;;;;;7.95;3.83;;;;;;;17.41;26.64;99064.66;5091333;28;20031;-48
2022/02/13 09:44:20;;;;;;;7.72;3.78;;;;;;;17.07;26.47;99049.38;5092344;28;20081;-49
2022/02/13 09:46:46;;;;;;;6.95;3.60;;;;;;;16.96;26.86;99043.06;5092297;28;20024;-49
2022/02/13 09:49:15;;;;;;;9.60;4.00;;;;;;;17.05;26.93;99024.13;5092373;28;20508;-50
2022/02/13 09:51:41;;;;;;;13.52;4.38;;;;;;;16.64;27.65;99036.47;5092308;28;20099;-49
2022/02/13 09:54:07;;;;;;;11.75;4.40;;;;;;;16.46;28.01;99034.75;5092188;28;20512;-49
2022/02/13 09:56:34;;;;;;;7.85;3.95;;;;;;;16.58;27.84;98995.84;5092177;28;20519;-50
2022/02/13 09:59:01;;;;;;;8.90;4.32;;;;;;;16.55;28.29;99041.31;5092185;28;20390;-50
2022/02/13 10:01:38;;;;;;;11.63;4.18;;;;;;;16.82;28.26;99052.31;5090799;28;20030;-50
2022/02/13 10:04:06;;;;;;;9.70;4.60;;;;;;;16.73;28.34;99032.44;5092150;28;20544;-49
2022/02/13 10:06:35;;;;;;;11.93;4.53;;;;;;;16.74;28.30;99002.25;5092056;28;20024;-50
2022/02/13 10:09:01;;;;;;;12.00;4.13;;;;;;;16.71;28.65;99055.72;5090699;28;20055;-49
2022/02/13 10:11:33;;;;;;;8.90;4.13;;;;;;;16.88;28.56;98994.88;5090669;28;20134;-49
2022/02/13 10:14:05;;;;;;;10.65;3.83;;;;;;;17.45;28.58;99028.63;5091916;28;20031;-50
2022/02/13 10:16:40;;;;;;;9.50;3.75;;;;;;;17.96;27.50;99008.31;5090659;28;20024;-50
2022/02/13 10:19:17;;;;;;;9.85;4.20;;;;;;;17.70;27.93;98988.47;5091915;28;20112;-50
2022/02/13 10:21:47;;;;;;;7.57;4.07;;;;;;;17.33;28.10;99021.53;5091947;28;20574;-50
2022/02/13 10:24:23;;;;;;;9.90;3.95;;;;;;;17.42;28.06;99007.88;5091916;28;20028;-49
2022/02/13 10:27:12;;;;;;;6.72;3.83;;;;;;;17.50;27.69;99007.50;5093221;28;20892;-49
2022/02/13 10:29:56;;;;;;;8.30;3.92;;;;;;;17.80;27.58;99009.88;5094847;28;20505;-50
2022/02/13 10:32:30;;;;;;;181.60;19.47;;;;;;;17.86;27.30;99002.84;5096069;28;20027;-51
2022/02/13 10:35:06;;;;;;;17.27;5.03;;;;;;;17.70;27.09;98956.63;5095706;28;20128;-50
2022/02/13 10:37:54;;;;;;;19.05;4.70;;;;;;;17.65;27.65;98994.50;5095969;28;20021;-49
2022/02/13 10:40:28;;;;;;;6.97;3.55;;;;;;;17.44;27.49;99005.78;5095913;28;20036;-50
2022/02/13 10:43:11;;;;;;;11.57;3.85;;;;;;;17.30;27.55;98999.97;5095882;28;20027;-50
2022/02/13 10:45:39;;;;;;;8.45;3.90;;;;;;;16.95;27.74;99009.63;5095829;28;20035;-50
2022/02/13 10:48:07;;;;;;;12.82;3.67;;;;;;;16.83;27.72;98966.44;5094418;28;20024;-50
2022/02/13 10:50:36;;;;;;;6.45;4.05;;;;;;;16.56;28.73;98976.72;5095742;28;20024;-50
2022/02/13 10:53:04;;;;;;;9.00;4.15;;;;;;;16.83;28.44;98979.69;5095594;28;20106;-49
2022/02/13 10:55:32;;;;;;;9.25;3.47;;;;;;;16.73;28.67;98963.53;5094202;28;20531;-50
2022/02/13 10:57:58;;;;;;;12.43;5.18;;;;;;;16.57;28.64;98946.50;5094200;28;20070;-51
2022/02/13 11:00:30;;;;;;;7.13;3.80;;;;;;;16.67;28.70;98959.19;5095497;28;20031;-49
2022/02/13 11:03:02;;;;;;;8.38;3.60;;;;;;;16.77;28.16;98954.88;5095531;28;20024;-50
2022/02/13 11:05:30;;;;;;;12.30;3.53;;;;;;;16.37;28.38;98963.56;5095507;28;20028;-50
2022/02/13 11:08:02;;;;;;;20.83;4.28;;;;;;;16.35;28.47;98951.59;5095392;28;20027;-50
2022/02/13 11:10:35;;;;;;;7.82;4.03;;;;;;;16.70;28.20;98956.88;5095445;28;20073;-50
2022/02/13 11:13:01;;;;;;;19.92;5.18;;;;;;;17.11;28.32;98962.22;5095236;28;20073;-50
2022/02/13 11:15:32;;;;;;;7.78;3.63;;;;;;;17.20;26.97;98947.50;5095136;28;20390;-50
2022/02/13 11:18:02;;;;;;;7.05;3.20;;;;;;;17.16;27.24;98935.78;5095189;28;20489;-49
2022/02/13 11:20:29;;;;;;;9.23;4.43;;;;;;;17.49;26.37;98947.53;5093848;28;20067;-49
2022/02/13 11:23:15;;;;;;;15.20;4.60;;;;;;;17.30;26.44;98921.16;5095106;28;20532;-49
2022/02/13 11:25:48;;;;;;;;;;;;;;;18.12;26.86;98938.47;5093984;28;20454;-50